sensor_id;sensor_type;location;lat;lon;timestamp;P1;durP1;ratioP1;P2;durP2;ratioP2
64791;SDS011;51226;47.504;19.074;2022-12-07T00:00:13;21.83;;;16.17;;
64791;SDS011;51226;47.504;19.074;2022-12-07T00:03:37;22.35;;;16.15;;
64791;SDS011;51226;47.504;19.074;2022-12-07T00:06:41;24.02;;;15.10;;
64791;SDS011;51226;47.504;19.074;2022-12-07T00:09:46;20.12;;;15.43;;
64791;SDS011;51226;47.504;19.074;2022-12-07T00:12:49;19.67;;;15.38;;
64791;SDS011;51226;47.504;19.074;2022-12-07T00:15:52;19.55;;;15.85;;
64791;SDS011;51226;47.504;19.074;2022-12-07T00:18:55;23.50;;;15.50;;
64791;SDS011;51226;47.504;19.074;2022-12-07T00:25:01;22.77;;;15.43;;
64791;SDS011;51226;47.504;19.074;2022-12-07T00:28:06;22.87;;;15.98;;
64791;SDS011;51226;47.504;19.074;2022-12-07T00:31:14;25.75;;;16.77;;
64791;SDS011;51226;47.504;19.074;2022-12-07T00:34:19;22.42;;;16.48;;
64791;SDS011;51226;47.504;19.074;2022-12-07T00:37:23;21.05;;;15.40;;
64791;SDS011;51226;47.504;19.074;2022-12-07T00:40:25;21.98;;;14.90;;
64791;SDS011;51226;47.504;19.074;2022-12-07T00:43:28;21.40;;;14.70;;
64791;SDS011;51226;47.504;19.074;2022-12-07T00:46:32;19.85;;;15.15;;
64791;SDS011;51226;47.504;19.074;2022-12-07T00:49:34;18.15;;;14.57;;
64791;SDS011;51226;47.504;19.074;2022-12-07T00:52:39;19.58;;;15.10;;
64791;SDS011;51226;47.504;19.074;2022-12-07T00:55:43;20.05;;;15.27;;
64791;SDS011;51226;47.504;19.074;2022-12-07T00:58:52;20.12;;;14.90;;
64791;SDS011;51226;47.504;19.074;2022-12-07T01:02:03;22.42;;;15.05;;
64791;SDS011;51226;47.504;19.074;2022-12-07T01:05:06;20.00;;;14.30;;
64791;SDS011;51226;47.504;19.074;2022-12-07T01:11:13;21.52;;;13.60;;
64791;SDS011;51226;47.504;19.074;2022-12-07T01:14:18;18.90;;;13.50;;
64791;SDS011;51226;47.504;19.074;2022-12-07T01:17:21;21.23;;;15.13;;
64791;SDS011;51226;47.504;19.074;2022-12-07T01:20:23;19.30;;;13.52;;
64791;SDS011;51226;47.504;19.074;2022-12-07T01:23:26;18.23;;;12.57;;
64791;SDS011;51226;47.504;19.074;2022-12-07T01:26:29;19.62;;;12.90;;
64791;SDS011;51226;47.504;19.074;2022-12-07T01:29:31;17.00;;;12.20;;
64791;SDS011;51226;47.504;19.074;2022-12-07T01:32:34;18.10;;;12.05;;
64791;SDS011;51226;47.504;19.074;2022-12-07T01:35:37;18.02;;;12.77;;
64791;SDS011;51226;47.504;19.074;2022-12-07T01:38:40;18.30;;;11.07;;
64791;SDS011;51226;47.504;19.074;2022-12-07T01:41:42;16.30;;;11.65;;
64791;SDS011;51226;47.504;19.074;2022-12-07T01:48:34;15.43;;;11.45;;
64791;SDS011;51226;47.504;19.074;2022-12-07T01:51:42;15.20;;;11.18;;
64791;SDS011;51226;47.504;19.074;2022-12-07T01:54:46;16.98;;;11.98;;
64791;SDS011;51226;47.504;19.074;2022-12-07T01:57:52;15.63;;;12.35;;
64791;SDS011;51226;47.504;19.074;2022-12-07T02:00:56;16.75;;;11.27;;
64791;SDS011;51226;47.504;19.074;2022-12-07T02:04:00;15.90;;;11.57;;
64791;SDS011;51226;47.504;19.074;2022-12-07T02:07:03;16.23;;;11.98;;
64791;SDS011;51226;47.504;19.074;2022-12-07T02:10:21;13.62;;;11.80;;
64791;SDS011;51226;47.504;19.074;2022-12-07T02:13:26;18.77;;;11.82;;
64791;SDS011;51226;47.504;19.074;2022-12-07T02:23:14;19.23;;;14.27;;
64791;SDS011;51226;47.504;19.074;2022-12-07T02:30:07;28.60;;;17.98;;
64791;SDS011;51226;47.504;19.074;2022-12-07T02:33:24;26.42;;;18.35;;
64791;SDS011;51226;47.504;19.074;2022-12-07T02:36:32;25.73;;;18.58;;
64791;SDS011;51226;47.504;19.074;2022-12-07T02:39:51;25.35;;;18.48;;
64791;SDS011;51226;47.504;19.074;2022-12-07T02:43:04;26.83;;;20.08;;
64791;SDS011;51226;47.504;19.074;2022-12-07T02:46:14;22.75;;;17.20;;
64791;SDS011;51226;47.504;19.074;2022-12-07T02:49:23;28.67;;;19.77;;
64791;SDS011;51226;47.504;19.074;2022-12-07T02:52:27;23.98;;;17.60;;
64791;SDS011;51226;47.504;19.074;2022-12-07T02:55:36;20.88;;;16.75;;
64791;SDS011;51226;47.504;19.074;2022-12-07T02:58:47;22.42;;;15.70;;
64791;SDS011;51226;47.504;19.074;2022-12-07T03:02:00;20.70;;;14.40;;
64791;SDS011;51226;47.504;19.074;2022-12-07T03:05:09;23.05;;;15.75;;
64791;SDS011;51226;47.504;19.074;2022-12-07T03:08:25;24.42;;;18.30;;
64791;SDS011;51226;47.504;19.074;2022-12-07T03:11:44;25.83;;;16.92;;
64791;SDS011;51226;47.504;19.074;2022-12-07T03:14:56;24.10;;;18.37;;
64791;SDS011;51226;47.504;19.074;2022-12-07T03:18:05;25.25;;;19.15;;
64791;SDS011;51226;47.504;19.074;2022-12-07T03:21:13;26.90;;;19.23;;
64791;SDS011;51226;47.504;19.074;2022-12-07T03:24:24;24.77;;;18.70;;
64791;SDS011;51226;47.504;19.074;2022-12-07T03:27:32;23.50;;;18.10;;
64791;SDS011;51226;47.504;19.074;2022-12-07T03:30:41;25.58;;;18.90;;
64791;SDS011;51226;47.504;19.074;2022-12-07T03:33:59;25.92;;;18.75;;
64791;SDS011;51226;47.504;19.074;2022-12-07T03:37:12;25.73;;;17.08;;
64791;SDS011;51226;47.504;19.074;2022-12-07T03:40:35;23.27;;;17.15;;
64791;SDS011;51226;47.504;19.074;2022-12-07T03:43:45;23.40;;;15.70;;
64791;SDS011;51226;47.504;19.074;2022-12-07T03:50:26;22.65;;;16.65;;
64791;SDS011;51226;47.504;19.074;2022-12-07T03:56:47;21.15;;;15.75;;
64791;SDS011;51226;47.504;19.074;2022-12-07T03:59:51;22.35;;;15.90;;
64791;SDS011;51226;47.504;19.074;2022-12-07T04:02:57;23.17;;;16.80;;
64791;SDS011;51226;47.504;19.074;2022-12-07T04:06:01;20.40;;;15.50;;
64791;SDS011;51226;47.504;19.074;2022-12-07T04:09:04;19.77;;;14.18;;
64791;SDS011;51226;47.504;19.074;2022-12-07T04:12:07;21.58;;;17.15;;
64791;SDS011;51226;47.504;19.074;2022-12-07T04:15:10;19.50;;;16.00;;
64791;SDS011;51226;47.504;19.074;2022-12-07T04:21:15;21.48;;;14.80;;
64791;SDS011;51226;47.504;19.074;2022-12-07T04:24:18;23.35;;;17.85;;
64791;SDS011;51226;47.504;19.074;2022-12-07T04:27:21;22.60;;;16.60;;
64791;SDS011;51226;47.504;19.074;2022-12-07T04:30:24;23.30;;;16.67;;
64791;SDS011;51226;47.504;19.074;2022-12-07T04:33:26;24.53;;;16.67;;
64791;SDS011;51226;47.504;19.074;2022-12-07T04:36:30;24.65;;;17.15;;
64791;SDS011;51226;47.504;19.074;2022-12-07T04:39:33;19.25;;;14.57;;
64791;SDS011;51226;47.504;19.074;2022-12-07T04:45:39;19.25;;;14.43;;
64791;SDS011;51226;47.504;19.074;2022-12-07T04:48:44;17.73;;;12.93;;
64791;SDS011;51226;47.504;19.074;2022-12-07T04:51:46;18.45;;;13.70;;
64791;SDS011;51226;47.504;19.074;2022-12-07T04:57:52;19.55;;;13.32;;
64791;SDS011;51226;47.504;19.074;2022-12-07T05:00:55;18.02;;;12.65;;
64791;SDS011;51226;47.504;19.074;2022-12-07T05:03:58;17.77;;;12.50;;
64791;SDS011;51226;47.504;19.074;2022-12-07T05:07:01;15.98;;;12.93;;
64791;SDS011;51226;47.504;19.074;2022-12-07T05:10:04;14.10;;;10.93;;
64791;SDS011;51226;47.504;19.074;2022-12-07T05:13:08;12.55;;;10.32;;
64791;SDS011;51226;47.504;19.074;2022-12-07T05:16:10;8.73;;;7.10;;
64791;SDS011;51226;47.504;19.074;2022-12-07T05:19:13;10.82;;;8.27;;
64791;SDS011;51226;47.504;19.074;2022-12-07T05:22:16;8.03;;;7.13;;
64791;SDS011;51226;47.504;19.074;2022-12-07T05:25:19;9.15;;;7.80;;
64791;SDS011;51226;47.504;19.074;2022-12-07T05:28:22;7.15;;;5.78;;
64791;SDS011;51226;47.504;19.074;2022-12-07T05:31:25;4.60;;;4.20;;
64791;SDS011;51226;47.504;19.074;2022-12-07T05:34:28;6.82;;;4.80;;
64791;SDS011;51226;47.504;19.074;2022-12-07T05:37:31;5.03;;;4.47;;
64791;SDS011;51226;47.504;19.074;2022-12-07T05:40:34;5.28;;;4.45;;
64791;SDS011;51226;47.504;19.074;2022-12-07T05:43:37;7.40;;;5.22;;
64791;SDS011;51226;47.504;19.074;2022-12-07T05:46:39;8.43;;;6.62;;
64791;SDS011;51226;47.504;19.074;2022-12-07T05:49:42;8.07;;;6.57;;
64791;SDS011;51226;47.504;19.074;2022-12-07T05:52:45;10.97;;;8.00;;
64791;SDS011;51226;47.504;19.074;2022-12-07T05:55:48;10.10;;;7.53;;
64791;SDS011;51226;47.504;19.074;2022-12-07T05:58:50;10.27;;;7.93;;
64791;SDS011;51226;47.504;19.074;2022-12-07T06:02:13;8.52;;;7.12;;
64791;SDS011;51226;47.504;19.074;2022-12-07T06:05:17;9.98;;;7.85;;
64791;SDS011;51226;47.504;19.074;2022-12-07T06:08:20;11.23;;;8.60;;
64791;SDS011;51226;47.504;19.074;2022-12-07T06:11:23;10.25;;;8.25;;
64791;SDS011;51226;47.504;19.074;2022-12-07T06:14:45;12.02;;;9.77;;
64791;SDS011;51226;47.504;19.074;2022-12-07T06:17:48;11.80;;;9.07;;
64791;SDS011;51226;47.504;19.074;2022-12-07T06:20:51;15.30;;;10.25;;
64791;SDS011;51226;47.504;19.074;2022-12-07T06:23:53;13.15;;;10.00;;
64791;SDS011;51226;47.504;19.074;2022-12-07T06:26:56;13.98;;;10.43;;
64791;SDS011;51226;47.504;19.074;2022-12-07T06:30:00;13.32;;;10.27;;
64791;SDS011;51226;47.504;19.074;2022-12-07T06:33:08;12.98;;;10.43;;
64791;SDS011;51226;47.504;19.074;2022-12-07T06:36:11;18.87;;;14.25;;
64791;SDS011;51226;47.504;19.074;2022-12-07T06:39:14;21.52;;;17.33;;
64791;SDS011;51226;47.504;19.074;2022-12-07T06:42:17;28.23;;;20.48;;
64791;SDS011;51226;47.504;19.074;2022-12-07T06:45:19;28.75;;;21.05;;
64791;SDS011;51226;47.504;19.074;2022-12-07T06:48:22;27.90;;;21.77;;
64791;SDS011;51226;47.504;19.074;2022-12-07T06:51:25;30.70;;;21.87;;
64791;SDS011;51226;47.504;19.074;2022-12-07T06:54:28;26.62;;;20.00;;
64791;SDS011;51226;47.504;19.074;2022-12-07T06:57:32;27.75;;;20.37;;
64791;SDS011;51226;47.504;19.074;2022-12-07T07:00:35;25.00;;;18.45;;
64791;SDS011;51226;47.504;19.074;2022-12-07T07:03:38;28.38;;;20.35;;
64791;SDS011;51226;47.504;19.074;2022-12-07T07:06:41;26.90;;;19.30;;
64791;SDS011;51226;47.504;19.074;2022-12-07T07:09:44;28.67;;;21.55;;
64791;SDS011;51226;47.504;19.074;2022-12-07T07:12:47;24.80;;;20.02;;
64791;SDS011;51226;47.504;19.074;2022-12-07T07:15:57;22.65;;;17.60;;
64791;SDS011;51226;47.504;19.074;2022-12-07T07:19:00;23.95;;;19.40;;
64791;SDS011;51226;47.504;19.074;2022-12-07T07:22:03;24.48;;;19.30;;
64791;SDS011;51226;47.504;19.074;2022-12-07T07:25:06;23.77;;;17.20;;
64791;SDS011;51226;47.504;19.074;2022-12-07T07:28:10;21.27;;;16.83;;
64791;SDS011;51226;47.504;19.074;2022-12-07T07:31:13;25.92;;;17.87;;
64791;SDS011;51226;47.504;19.074;2022-12-07T07:34:16;23.35;;;17.90;;
64791;SDS011;51226;47.504;19.074;2022-12-07T07:37:18;22.92;;;17.45;;
64791;SDS011;51226;47.504;19.074;2022-12-07T07:40:23;20.70;;;16.12;;
64791;SDS011;51226;47.504;19.074;2022-12-07T07:46:29;18.37;;;14.55;;
64791;SDS011;51226;47.504;19.074;2022-12-07T07:49:32;21.70;;;15.93;;
64791;SDS011;51226;47.504;19.074;2022-12-07T07:52:35;21.80;;;15.65;;
64791;SDS011;51226;47.504;19.074;2022-12-07T07:55:39;18.58;;;14.85;;
64791;SDS011;51226;47.504;19.074;2022-12-07T07:58:42;23.98;;;19.42;;
64791;SDS011;51226;47.504;19.074;2022-12-07T08:01:44;27.67;;;19.48;;
64791;SDS011;51226;47.504;19.074;2022-12-07T08:04:48;30.23;;;21.75;;
64791;SDS011;51226;47.504;19.074;2022-12-07T08:07:51;26.58;;;21.35;;
64791;SDS011;51226;47.504;19.074;2022-12-07T08:10:54;26.77;;;20.33;;
64791;SDS011;51226;47.504;19.074;2022-12-07T08:13:57;28.13;;;21.27;;
64791;SDS011;51226;47.504;19.074;2022-12-07T08:17:00;26.40;;;20.52;;
64791;SDS011;51226;47.504;19.074;2022-12-07T08:20:03;24.58;;;19.35;;
64791;SDS011;51226;47.504;19.074;2022-12-07T08:23:07;26.17;;;20.02;;
64791;SDS011;51226;47.504;19.074;2022-12-07T08:26:13;27.77;;;21.20;;
64791;SDS011;51226;47.504;19.074;2022-12-07T08:29:17;31.83;;;22.33;;
64791;SDS011;51226;47.504;19.074;2022-12-07T08:32:20;34.70;;;23.10;;
64791;SDS011;51226;47.504;19.074;2022-12-07T08:35:23;28.62;;;22.30;;
64791;SDS011;51226;47.504;19.074;2022-12-07T08:38:26;28.38;;;22.27;;
64791;SDS011;51226;47.504;19.074;2022-12-07T08:41:35;23.17;;;20.12;;
64791;SDS011;51226;47.504;19.074;2022-12-07T08:44:38;33.63;;;23.08;;
64791;SDS011;51226;47.504;19.074;2022-12-07T08:47:48;32.10;;;23.45;;
64791;SDS011;51226;47.504;19.074;2022-12-07T08:50:56;28.87;;;22.67;;
64791;SDS011;51226;47.504;19.074;2022-12-07T08:54:00;24.12;;;19.08;;
64791;SDS011;51226;47.504;19.074;2022-12-07T08:57:06;22.90;;;18.25;;
64791;SDS011;51226;47.504;19.074;2022-12-07T09:00:11;21.55;;;15.63;;
64791;SDS011;51226;47.504;19.074;2022-12-07T09:03:14;17.50;;;13.35;;
64791;SDS011;51226;47.504;19.074;2022-12-07T09:06:20;17.42;;;13.05;;
64791;SDS011;51226;47.504;19.074;2022-12-07T09:09:23;18.92;;;12.60;;
64791;SDS011;51226;47.504;19.074;2022-12-07T09:12:26;13.62;;;10.95;;
64791;SDS011;51226;47.504;19.074;2022-12-07T09:15:29;15.50;;;11.90;;
64791;SDS011;51226;47.504;19.074;2022-12-07T09:18:32;16.12;;;11.85;;
64791;SDS011;51226;47.504;19.074;2022-12-07T09:21:36;13.13;;;11.18;;
64791;SDS011;51226;47.504;19.074;2022-12-07T09:24:39;11.10;;;9.98;;
64791;SDS011;51226;47.504;19.074;2022-12-07T09:27:42;11.32;;;9.70;;
64791;SDS011;51226;47.504;19.074;2022-12-07T09:30:47;10.10;;;8.77;;
64791;SDS011;51226;47.504;19.074;2022-12-07T09:34:10;11.07;;;8.68;;
64791;SDS011;51226;47.504;19.074;2022-12-07T09:37:13;8.77;;;7.87;;
64791;SDS011;51226;47.504;19.074;2022-12-07T09:40:16;8.35;;;7.32;;
64791;SDS011;51226;47.504;19.074;2022-12-07T09:43:22;8.80;;;7.90;;
64791;SDS011;51226;47.504;19.074;2022-12-07T09:46:27;7.12;;;6.37;;
64791;SDS011;51226;47.504;19.074;2022-12-07T09:49:33;9.30;;;7.60;;
64791;SDS011;51226;47.504;19.074;2022-12-07T09:52:36;6.53;;;5.90;;
64791;SDS011;51226;47.504;19.074;2022-12-07T09:55:41;8.00;;;7.22;;
64791;SDS011;51226;47.504;19.074;2022-12-07T09:58:46;9.13;;;7.05;;
64791;SDS011;51226;47.504;19.074;2022-12-07T10:01:51;7.45;;;6.75;;
64791;SDS011;51226;47.504;19.074;2022-12-07T10:04:53;6.80;;;6.12;;
64791;SDS011;51226;47.504;19.074;2022-12-07T10:07:58;6.82;;;6.15;;
64791;SDS011;51226;47.504;19.074;2022-12-07T10:14:13;6.10;;;5.55;;
64791;SDS011;51226;47.504;19.074;2022-12-07T10:17:33;7.47;;;5.95;;
64791;SDS011;51226;47.504;19.074;2022-12-07T10:20:36;5.78;;;5.20;;
64791;SDS011;51226;47.504;19.074;2022-12-07T10:23:41;7.28;;;6.22;;
64791;SDS011;51226;47.504;19.074;2022-12-07T10:27:00;7.72;;;6.07;;
64791;SDS011;51226;47.504;19.074;2022-12-07T10:30:07;6.50;;;5.90;;
64791;SDS011;51226;47.504;19.074;2022-12-07T10:33:36;5.72;;;5.15;;
64791;SDS011;51226;47.504;19.074;2022-12-07T10:36:41;5.95;;;5.35;;
64791;SDS011;51226;47.504;19.074;2022-12-07T10:43:06;7.22;;;5.00;;
64791;SDS011;51226;47.504;19.074;2022-12-07T10:46:27;6.30;;;4.78;;
64791;SDS011;51226;47.504;19.074;2022-12-07T11:10:34;6.53;;;5.85;;
64791;SDS011;51226;47.504;19.074;2022-12-07T11:13:56;7.22;;;6.62;;
64791;SDS011;51226;47.504;19.074;2022-12-07T11:23:56;8.07;;;6.85;;
64791;SDS011;51226;47.504;19.074;2022-12-07T11:27:12;8.40;;;7.60;;
64791;SDS011;51226;47.504;19.074;2022-12-07T11:30:42;7.47;;;6.45;;
64791;SDS011;51226;47.504;19.074;2022-12-07T11:34:02;8.40;;;7.55;;
64791;SDS011;51226;47.504;19.074;2022-12-07T11:37:18;7.82;;;7.10;;
64791;SDS011;51226;47.504;19.074;2022-12-07T11:40:29;7.97;;;7.20;;
64791;SDS011;51226;47.504;19.074;2022-12-07T11:44:15;9.20;;;7.82;;
64791;SDS011;51226;47.504;19.074;2022-12-07T11:47:20;9.88;;;7.90;;
64791;SDS011;51226;47.504;19.074;2022-12-07T11:50:34;9.73;;;8.32;;
64791;SDS011;51226;47.504;19.074;2022-12-07T11:53:49;9.25;;;8.27;;
64791;SDS011;51226;47.504;19.074;2022-12-07T11:57:01;9.20;;;8.10;;
64791;SDS011;51226;47.504;19.074;2022-12-07T12:00:14;11.35;;;8.07;;
64791;SDS011;51226;47.504;19.074;2022-12-07T12:03:22;10.07;;;8.13;;
64791;SDS011;51226;47.504;19.074;2022-12-07T12:06:34;9.65;;;7.55;;
64791;SDS011;51226;47.504;19.074;2022-12-07T12:09:54;8.80;;;7.90;;
64791;SDS011;51226;47.504;19.074;2022-12-07T12:16:51;9.38;;;7.65;;
64791;SDS011;51226;47.504;19.074;2022-12-07T12:23:06;8.43;;;7.22;;
64791;SDS011;51226;47.504;19.074;2022-12-07T12:26:19;9.35;;;8.38;;
64791;SDS011;51226;47.504;19.074;2022-12-07T12:29:29;10.35;;;9.10;;
64791;SDS011;51226;47.504;19.074;2022-12-07T12:32:39;8.18;;;7.35;;
64791;SDS011;51226;47.504;19.074;2022-12-07T12:35:44;8.13;;;7.32;;
64791;SDS011;51226;47.504;19.074;2022-12-07T12:38:49;8.30;;;7.50;;
64791;SDS011;51226;47.504;19.074;2022-12-07T12:42:01;8.73;;;7.47;;
64791;SDS011;51226;47.504;19.074;2022-12-07T12:45:11;8.95;;;7.68;;
64791;SDS011;51226;47.504;19.074;2022-12-07T12:48:28;9.13;;;7.47;;
64791;SDS011;51226;47.504;19.074;2022-12-07T12:51:38;8.95;;;8.05;;
64791;SDS011;51226;47.504;19.074;2022-12-07T12:54:59;9.48;;;8.57;;
64791;SDS011;51226;47.504;19.074;2022-12-07T13:11:20;10.23;;;8.60;;
64791;SDS011;51226;47.504;19.074;2022-12-07T13:14:39;8.50;;;7.60;;
64791;SDS011;51226;47.504;19.074;2022-12-07T13:17:55;9.98;;;8.70;;
64791;SDS011;51226;47.504;19.074;2022-12-07T13:21:01;8.90;;;8.00;;
64791;SDS011;51226;47.504;19.074;2022-12-07T13:24:10;10.10;;;8.57;;
64791;SDS011;51226;47.504;19.074;2022-12-07T13:27:15;10.57;;;8.75;;
64791;SDS011;51226;47.504;19.074;2022-12-07T13:30:20;11.63;;;9.40;;
64791;SDS011;51226;47.504;19.074;2022-12-07T13:33:24;9.88;;;7.62;;
64791;SDS011;51226;47.504;19.074;2022-12-07T13:36:37;9.52;;;8.43;;
64791;SDS011;51226;47.504;19.074;2022-12-07T13:39:51;8.90;;;7.50;;
64791;SDS011;51226;47.504;19.074;2022-12-07T13:42:59;11.88;;;7.65;;
64791;SDS011;51226;47.504;19.074;2022-12-07T13:46:04;15.73;;;11.38;;
64791;SDS011;51226;47.504;19.074;2022-12-07T13:49:16;10.85;;;8.80;;
64791;SDS011;51226;47.504;19.074;2022-12-07T13:52:44;14.27;;;9.60;;
64791;SDS011;51226;47.504;19.074;2022-12-07T13:55:47;9.93;;;8.25;;
64791;SDS011;51226;47.504;19.074;2022-12-07T13:58:56;11.38;;;8.68;;
64791;SDS011;51226;47.504;19.074;2022-12-07T14:01:58;8.45;;;7.53;;
64791;SDS011;51226;47.504;19.074;2022-12-07T14:05:15;15.77;;;9.73;;
64791;SDS011;51226;47.504;19.074;2022-12-07T14:08:25;14.15;;;9.88;;
64791;SDS011;51226;47.504;19.074;2022-12-07T14:11:33;12.70;;;9.48;;
64791;SDS011;51226;47.504;19.074;2022-12-07T14:14:36;12.60;;;10.05;;
64791;SDS011;51226;47.504;19.074;2022-12-07T14:17:49;38.92;;;26.10;;
64791;SDS011;51226;47.504;19.074;2022-12-07T14:24:30;15.77;;;10.98;;
64791;SDS011;51226;47.504;19.074;2022-12-07T14:27:49;18.67;;;10.90;;
64791;SDS011;51226;47.504;19.074;2022-12-07T14:31:01;16.10;;;10.30;;
64791;SDS011;51226;47.504;19.074;2022-12-07T14:34:04;21.30;;;12.02;;
64791;SDS011;51226;47.504;19.074;2022-12-07T14:37:08;13.77;;;10.40;;
64791;SDS011;51226;47.504;19.074;2022-12-07T14:40:13;21.62;;;15.20;;
64791;SDS011;51226;47.504;19.074;2022-12-07T14:43:18;16.37;;;11.40;;
64791;SDS011;51226;47.504;19.074;2022-12-07T14:46:22;19.23;;;13.85;;
64791;SDS011;51226;47.504;19.074;2022-12-07T14:49:25;19.55;;;14.20;;
64791;SDS011;51226;47.504;19.074;2022-12-07T14:52:36;16.98;;;12.27;;
64791;SDS011;51226;47.504;19.074;2022-12-07T14:55:59;14.25;;;11.30;;
64791;SDS011;51226;47.504;19.074;2022-12-07T14:59:01;12.23;;;10.18;;
64791;SDS011;51226;47.504;19.074;2022-12-07T15:02:05;10.63;;;9.50;;
64791;SDS011;51226;47.504;19.074;2022-12-07T15:05:09;13.57;;;9.63;;
64791;SDS011;51226;47.504;19.074;2022-12-07T15:08:17;13.95;;;10.48;;
64791;SDS011;51226;47.504;19.074;2022-12-07T15:14:24;15.57;;;12.45;;
64791;SDS011;51226;47.504;19.074;2022-12-07T15:17:27;14.63;;;11.73;;
64791;SDS011;51226;47.504;19.074;2022-12-07T15:20:34;12.40;;;9.80;;
64791;SDS011;51226;47.504;19.074;2022-12-07T15:23:36;11.32;;;10.13;;
64791;SDS011;51226;47.504;19.074;2022-12-07T15:26:39;12.55;;;9.63;;
64791;SDS011;51226;47.504;19.074;2022-12-07T15:32:50;13.27;;;9.32;;
64791;SDS011;51226;47.504;19.074;2022-12-07T15:35:53;12.80;;;9.73;;
64791;SDS011;51226;47.504;19.074;2022-12-07T15:38:56;11.85;;;8.85;;
64791;SDS011;51226;47.504;19.074;2022-12-07T15:42:16;13.15;;;9.60;;
64791;SDS011;51226;47.504;19.074;2022-12-07T15:45:18;18.83;;;13.20;;
64791;SDS011;51226;47.504;19.074;2022-12-07T15:48:21;13.60;;;10.20;;
64791;SDS011;51226;47.504;19.074;2022-12-07T15:51:30;12.52;;;9.20;;
64791;SDS011;51226;47.504;19.074;2022-12-07T15:54:33;12.75;;;9.15;;
64791;SDS011;51226;47.504;19.074;2022-12-07T15:57:36;11.23;;;9.15;;
64791;SDS011;51226;47.504;19.074;2022-12-07T16:00:41;12.77;;;9.95;;
64791;SDS011;51226;47.504;19.074;2022-12-07T16:03:44;17.55;;;10.45;;
64791;SDS011;51226;47.504;19.074;2022-12-07T16:06:48;15.07;;;11.60;;
64791;SDS011;51226;47.504;19.074;2022-12-07T16:09:53;13.62;;;10.27;;
64791;SDS011;51226;47.504;19.074;2022-12-07T16:12:56;15.20;;;8.95;;
64791;SDS011;51226;47.504;19.074;2022-12-07T16:16:02;14.73;;;10.18;;
64791;SDS011;51226;47.504;19.074;2022-12-07T16:19:06;15.15;;;10.27;;
64791;SDS011;51226;47.504;19.074;2022-12-07T16:22:10;16.75;;;10.77;;
64791;SDS011;51226;47.504;19.074;2022-12-07T16:25:13;15.07;;;10.15;;
64791;SDS011;51226;47.504;19.074;2022-12-07T16:28:16;16.08;;;10.43;;
64791;SDS011;51226;47.504;19.074;2022-12-07T16:31:20;11.98;;;8.73;;
64791;SDS011;51226;47.504;19.074;2022-12-07T16:34:25;11.00;;;8.82;;
64791;SDS011;51226;47.504;19.074;2022-12-07T16:37:28;14.23;;;9.63;;
64791;SDS011;51226;47.504;19.074;2022-12-07T16:40:31;12.37;;;9.38;;
64791;SDS011;51226;47.504;19.074;2022-12-07T16:43:34;13.32;;;10.13;;
64791;SDS011;51226;47.504;19.074;2022-12-07T16:46:37;11.48;;;8.63;;
64791;SDS011;51226;47.504;19.074;2022-12-07T16:49:41;13.32;;;9.50;;
64791;SDS011;51226;47.504;19.074;2022-12-07T16:52:45;13.75;;;9.60;;
64791;SDS011;51226;47.504;19.074;2022-12-07T16:55:48;13.93;;;9.50;;
64791;SDS011;51226;47.504;19.074;2022-12-07T16:58:51;13.85;;;9.43;;
64791;SDS011;51226;47.504;19.074;2022-12-07T17:01:54;13.48;;;9.80;;
64791;SDS011;51226;47.504;19.074;2022-12-07T17:04:57;14.43;;;10.52;;
64791;SDS011;51226;47.504;19.074;2022-12-07T17:08:01;16.65;;;10.48;;
64791;SDS011;51226;47.504;19.074;2022-12-07T17:11:09;12.07;;;8.73;;
64791;SDS011;51226;47.504;19.074;2022-12-07T17:14:22;12.60;;;8.75;;
64791;SDS011;51226;47.504;19.074;2022-12-07T17:17:44;12.00;;;9.23;;
64791;SDS011;51226;47.504;19.074;2022-12-07T17:20:48;15.77;;;9.48;;
64791;SDS011;51226;47.504;19.074;2022-12-07T17:23:51;14.73;;;9.65;;
64791;SDS011;51226;47.504;19.074;2022-12-07T17:26:54;13.32;;;10.07;;
64791;SDS011;51226;47.504;19.074;2022-12-07T17:29:57;12.20;;;9.82;;
64791;SDS011;51226;47.504;19.074;2022-12-07T17:33:00;13.88;;;10.40;;
64791;SDS011;51226;47.504;19.074;2022-12-07T17:36:12;14.63;;;10.23;;
64791;SDS011;51226;47.504;19.074;2022-12-07T17:39:17;14.07;;;9.82;;
64791;SDS011;51226;47.504;19.074;2022-12-07T17:42:21;15.18;;;9.48;;
64791;SDS011;51226;47.504;19.074;2022-12-07T17:45:39;14.10;;;10.20;;
64791;SDS011;51226;47.504;19.074;2022-12-07T17:48:42;12.60;;;10.05;;
64791;SDS011;51226;47.504;19.074;2022-12-07T17:51:44;12.07;;;9.70;;
64791;SDS011;51226;47.504;19.074;2022-12-07T17:55:06;14.65;;;9.75;;
64791;SDS011;51226;47.504;19.074;2022-12-07T17:58:09;16.02;;;9.38;;
64791;SDS011;51226;47.504;19.074;2022-12-07T18:01:12;14.43;;;9.77;;
64791;SDS011;51226;47.504;19.074;2022-12-07T18:04:15;12.65;;;10.55;;
64791;SDS011;51226;47.504;19.074;2022-12-07T18:07:18;14.32;;;9.88;;
64791;SDS011;51226;47.504;19.074;2022-12-07T18:10:21;15.75;;;9.98;;
64791;SDS011;51226;47.504;19.074;2022-12-07T18:13:24;16.67;;;11.20;;
64791;SDS011;51226;47.504;19.074;2022-12-07T18:16:40;16.50;;;11.30;;
64791;SDS011;51226;47.504;19.074;2022-12-07T18:19:42;17.27;;;12.43;;
64791;SDS011;51226;47.504;19.074;2022-12-07T18:22:45;14.68;;;11.88;;
64791;SDS011;51226;47.504;19.074;2022-12-07T18:25:49;17.57;;;11.97;;
64791;SDS011;51226;47.504;19.074;2022-12-07T18:28:52;18.17;;;12.15;;
64791;SDS011;51226;47.504;19.074;2022-12-07T18:31:55;20.73;;;13.77;;
64791;SDS011;51226;47.504;19.074;2022-12-07T18:34:59;19.80;;;14.73;;
64791;SDS011;51226;47.504;19.074;2022-12-07T18:38:02;19.23;;;12.23;;
64791;SDS011;51226;47.504;19.074;2022-12-07T18:41:09;17.25;;;12.60;;
64791;SDS011;51226;47.504;19.074;2022-12-07T18:44:13;19.98;;;13.25;;
64791;SDS011;51226;47.504;19.074;2022-12-07T18:47:18;20.52;;;14.00;;
64791;SDS011;51226;47.504;19.074;2022-12-07T18:50:21;18.27;;;13.30;;
64791;SDS011;51226;47.504;19.074;2022-12-07T18:53:24;19.10;;;13.05;;
64791;SDS011;51226;47.504;19.074;2022-12-07T18:56:26;22.43;;;14.70;;
64791;SDS011;51226;47.504;19.074;2022-12-07T18:59:30;18.67;;;12.65;;
64791;SDS011;51226;47.504;19.074;2022-12-07T19:02:48;22.35;;;13.25;;
64791;SDS011;51226;47.504;19.074;2022-12-07T19:05:52;22.00;;;15.75;;
64791;SDS011;51226;47.504;19.074;2022-12-07T19:08:57;20.60;;;14.30;;
64791;SDS011;51226;47.504;19.074;2022-12-07T19:12:01;22.17;;;14.75;;
64791;SDS011;51226;47.504;19.074;2022-12-07T19:15:06;21.73;;;13.88;;
64791;SDS011;51226;47.504;19.074;2022-12-07T19:18:11;21.33;;;13.35;;
64791;SDS011;51226;47.504;19.074;2022-12-07T19:21:13;23.50;;;14.27;;
64791;SDS011;51226;47.504;19.074;2022-12-07T19:24:19;22.40;;;14.48;;
64791;SDS011;51226;47.504;19.074;2022-12-07T19:27:25;25.55;;;13.68;;
64791;SDS011;51226;47.504;19.074;2022-12-07T19:30:29;21.17;;;13.45;;
64791;SDS011;51226;47.504;19.074;2022-12-07T19:33:31;19.60;;;13.55;;
64791;SDS011;51226;47.504;19.074;2022-12-07T19:36:34;18.25;;;13.15;;
64791;SDS011;51226;47.504;19.074;2022-12-07T19:39:37;22.70;;;13.37;;
64791;SDS011;51226;47.504;19.074;2022-12-07T19:42:41;21.42;;;13.75;;
64791;SDS011;51226;47.504;19.074;2022-12-07T19:45:44;21.58;;;12.82;;